Wattay International Airport
VLVT : now visible

Airfield :











YOU CAN JOIN US ON...

 
LOGIN :

Register | Disclaimer

   EN    FR    IT 

 









Legend :    VFR   Marginal VFR   IFR   Intensive IFR   Very Intensive IFR
Visi :
Ceiling :
>= 8 km
>= 3000ft
5 to 8 km
1000 to 3000 ft
1500m to 5 km
500 to 1000 ft
800 to 1500m
200 to 500 ft
< 800m
< 200 ft
Symbols :   Thunderstorms  Fog  Heavy snow  Heavy precipitations  Wind > 20 kt






- Airport Elevation : 564 ft
- IATA code : VTE


VLVT - Wattay International

CURRENT METAR :
  • 191500Z 09006KT 4000 BR NSC 24/18 Q1015 NOSIG

EXPIRED METARs :
  • 191430Z 09006KT 4000 BR NSC 24/18 Q1015 NOSIG
  • 191400Z 09008KT 4000 BR NSC 25/18 Q1015 NOSIG
  • 191330Z 06008KT 4000 BR SCT050 26/18 Q1014 NOSIG
  • 191300Z 06008KT 4000 BR SCT050 26/18 Q1014 NOSIG
  • 191230Z 06004KT 5000 SCT050 26/18 Q1014 NOSIG

TAF TAF VLVT
Valid from the 19 at 12:00 until the 20 at 12:00 UTC


191100Z 1912/2012 06004KT 5000 BR FEW020 SCT050



MET'MAP, your aeronautical weather chart ! - Copyright ORBIFLY December 2007 - Disclaimer

ORBIFLY MET'MAP TEAM :

Programming & Development : Alexandra Zaïnal
Concept & Development : Baudouin d'Aumeries
Co-Development & Prog : Marc-Olivier Méhu
Technical & hardware support : Manuel Goepfert

Contact : metmap@orbifly.com




SOURCES & CREDITS :

   NOAA       Earth
Advisory